sensor_id;sensor_type;location;lat;lon;timestamp;pressure;altitude;pressure_sealevel;temperature;humidity
73974;BME280;62336;-26.094;27.994;2023-05-23T00:01:56;85079.91;;;23.26;19.41
73974;BME280;62336;-26.094;27.994;2023-05-23T00:04:21;85074.07;;;23.18;19.50
73974;BME280;62336;-26.094;27.994;2023-05-23T00:06:47;85070.90;;;23.17;19.72
73974;BME280;62336;-26.094;27.994;2023-05-23T00:09:13;85065.60;;;23.15;19.90
73974;BME280;62336;-26.094;27.994;2023-05-23T00:11:38;85057.76;;;23.48;20.11
73974;BME280;62336;-26.094;27.994;2023-05-23T00:14:04;85056.07;;;23.66;20.39
73974;BME280;62336;-26.094;27.994;2023-05-23T00:16:29;85054.51;;;23.89;20.75
73974;BME280;62336;-26.094;27.994;2023-05-23T00:18:54;85055.55;;;23.80;21.15
73974;BME280;62336;-26.094;27.994;2023-05-23T00:21:20;85059.11;;;23.93;21.45
73974;BME280;62336;-26.094;27.994;2023-05-23T00:23:45;85057.94;;;23.53;21.56
73974;BME280;62336;-26.094;27.994;2023-05-23T00:26:11;85052.81;;;23.87;22.19
73974;BME280;62336;-26.094;27.994;2023-05-23T00:28:37;85052.73;;;23.83;22.44
73974;BME280;62336;-26.094;27.994;2023-05-23T00:31:03;85057.88;;;24.54;21.83
73974;BME280;62336;-26.094;27.994;2023-05-23T00:33:28;85067.34;;;24.10;22.05
73974;BME280;62336;-26.094;27.994;2023-05-23T00:35:53;85076.00;;;23.98;22.06
73974;BME280;62336;-26.094;27.994;2023-05-23T00:38:19;85079.52;;;24.02;22.22
73974;BME280;62336;-26.094;27.994;2023-05-23T00:40:44;85081.32;;;24.34;22.06
73974;BME280;62336;-26.094;27.994;2023-05-23T00:43:10;85075.87;;;24.91;21.68
73974;BME280;62336;-26.094;27.994;2023-05-23T00:45:35;85072.66;;;24.67;21.90
73974;BME280;62336;-26.094;27.994;2023-05-23T00:48:01;85069.27;;;24.63;22.06
73974;BME280;62336;-26.094;27.994;2023-05-23T00:50:27;85073.71;;;24.61;22.07
73974;BME280;62336;-26.094;27.994;2023-05-23T00:52:51;85075.37;;;24.25;22.33
73974;BME280;62336;-26.094;27.994;2023-05-23T00:55:16;85066.76;;;24.80;21.91
73974;BME280;62336;-26.094;27.994;2023-05-23T00:57:42;85060.42;;;25.24;21.63
73974;BME280;62336;-26.094;27.994;2023-05-23T01:00:08;85059.40;;;25.32;21.60
73974;BME280;62336;-26.094;27.994;2023-05-23T01:02:33;85061.23;;;25.18;21.72
73974;BME280;62336;-26.094;27.994;2023-05-23T01:04:58;85063.66;;;24.84;22.10
73974;BME280;62336;-26.094;27.994;2023-05-23T01:07:23;85065.05;;;24.83;22.10
73974;BME280;62336;-26.094;27.994;2023-05-23T01:09:49;85063.43;;;24.47;22.22
73974;BME280;62336;-26.094;27.994;2023-05-23T01:12:33;85062.39;;;25.36;21.71
73974;BME280;62336;-26.094;27.994;2023-05-23T01:14:46;85064.93;;;25.35;21.55
73974;BME280;62336;-26.094;27.994;2023-05-23T01:17:10;85059.78;;;25.12;21.66
73974;BME280;62336;-26.094;27.994;2023-05-23T01:21:56;85060.34;;;24.46;22.48
73974;BME280;62336;-26.094;27.994;2023-05-23T01:24:29;85060.29;;;25.15;22.17
73974;BME280;62336;-26.094;27.994;2023-05-23T01:27:00;85059.44;;;24.85;22.32
73974;BME280;62336;-26.094;27.994;2023-05-23T01:29:17;85059.53;;;24.60;22.30
73974;BME280;62336;-26.094;27.994;2023-05-23T01:31:42;85057.63;;;25.10;22.08
73974;BME280;62336;-26.094;27.994;2023-05-23T01:34:04;85056.41;;;24.78;22.36
73974;BME280;62336;-26.094;27.994;2023-05-23T01:36:28;85066.51;;;24.26;22.48
73974;BME280;62336;-26.094;27.994;2023-05-23T01:38:54;85066.86;;;24.46;22.45
73974;BME280;62336;-26.094;27.994;2023-05-23T01:41:19;85070.17;;;24.92;22.31
73974;BME280;62336;-26.094;27.994;2023-05-23T01:43:45;85069.23;;;25.11;21.97
73974;BME280;62336;-26.094;27.994;2023-05-23T01:46:10;85064.86;;;25.79;21.49
73974;BME280;62336;-26.094;27.994;2023-05-23T01:48:35;85064.74;;;24.82;22.15
73974;BME280;62336;-26.094;27.994;2023-05-23T01:51:01;85068.02;;;24.79;22.47
73974;BME280;62336;-26.094;27.994;2023-05-23T01:53:26;85072.23;;;24.38;22.70
73974;BME280;62336;-26.094;27.994;2023-05-23T01:55:51;85071.68;;;24.76;22.57
73974;BME280;62336;-26.094;27.994;2023-05-23T01:58:16;85071.43;;;24.93;22.51
73974;BME280;62336;-26.094;27.994;2023-05-23T02:00:43;85072.74;;;25.00;22.28
73974;BME280;62336;-26.094;27.994;2023-05-23T02:03:07;85074.49;;;25.64;21.70
73974;BME280;62336;-26.094;27.994;2023-05-23T02:05:32;85070.80;;;25.19;22.15
73974;BME280;62336;-26.094;27.994;2023-05-23T02:07:57;85072.74;;;24.46;22.62
73974;BME280;62336;-26.094;27.994;2023-05-23T02:10:23;85070.84;;;24.60;22.69
73974;BME280;62336;-26.094;27.994;2023-05-23T02:12:48;85064.52;;;24.98;22.18
73974;BME280;62336;-26.094;27.994;2023-05-23T02:15:13;85066.33;;;25.28;22.06
73974;BME280;62336;-26.094;27.994;2023-05-23T02:17:39;85065.50;;;25.19;21.96
73974;BME280;62336;-26.094;27.994;2023-05-23T02:20:05;85062.50;;;25.19;21.98
73974;BME280;62336;-26.094;27.994;2023-05-23T02:22:30;85063.24;;;25.42;21.91
73974;BME280;62336;-26.094;27.994;2023-05-23T02:24:55;85066.46;;;25.03;22.16
73974;BME280;62336;-26.094;27.994;2023-05-23T02:27:20;85072.14;;;25.12;22.14
73974;BME280;62336;-26.094;27.994;2023-05-23T02:29:45;85071.27;;;25.49;21.96
73974;BME280;62336;-26.094;27.994;2023-05-23T02:32:11;85074.05;;;24.82;22.37
73974;BME280;62336;-26.094;27.994;2023-05-23T02:34:37;85074.09;;;25.56;21.71
73974;BME280;62336;-26.094;27.994;2023-05-23T02:37:02;85071.94;;;25.43;21.91
73974;BME280;62336;-26.094;27.994;2023-05-23T02:39:27;85069.38;;;24.28;22.79
73974;BME280;62336;-26.094;27.994;2023-05-23T02:41:53;85070.46;;;25.14;22.34
73974;BME280;62336;-26.094;27.994;2023-05-23T02:44:18;85070.99;;;24.73;22.55
73974;BME280;62336;-26.094;27.994;2023-05-23T02:46:44;85065.50;;;24.27;22.98
73974;BME280;62336;-26.094;27.994;2023-05-23T02:49:09;85065.16;;;24.22;23.02
73974;BME280;62336;-26.094;27.994;2023-05-23T02:51:34;85068.89;;;24.23;23.02
73974;BME280;62336;-26.094;27.994;2023-05-23T02:53:59;85069.83;;;24.38;22.92
73974;BME280;62336;-26.094;27.994;2023-05-23T02:56:24;85077.01;;;24.88;22.54
73974;BME280;62336;-26.094;27.994;2023-05-23T02:58:50;85080.44;;;24.47;22.81
73974;BME280;62336;-26.094;27.994;2023-05-23T03:01:15;85079.49;;;24.82;22.51
73974;BME280;62336;-26.094;27.994;2023-05-23T03:03:42;85075.53;;;24.98;22.31
73974;BME280;62336;-26.094;27.994;2023-05-23T03:06:07;85077.98;;;24.97;22.23
73974;BME280;62336;-26.094;27.994;2023-05-23T03:08:32;85075.74;;;24.46;22.59
73974;BME280;62336;-26.094;27.994;2023-05-23T03:10:57;85075.16;;;24.98;22.28
73974;BME280;62336;-26.094;27.994;2023-05-23T03:13:23;85075.84;;;24.85;22.51
73974;BME280;62336;-26.094;27.994;2023-05-23T03:15:48;85079.75;;;24.64;22.35
73974;BME280;62336;-26.094;27.994;2023-05-23T03:18:14;85083.07;;;24.96;22.20
73974;BME280;62336;-26.094;27.994;2023-05-23T03:20:39;85085.63;;;25.13;22.03
73974;BME280;62336;-26.094;27.994;2023-05-23T03:23:04;85091.67;;;24.60;22.22
73974;BME280;62336;-26.094;27.994;2023-05-23T03:25:29;85096.92;;;24.74;22.50
73974;BME280;62336;-26.094;27.994;2023-05-23T03:27:54;85095.01;;;24.71;22.33
73974;BME280;62336;-26.094;27.994;2023-05-23T03:30:20;85096.56;;;24.77;22.28
73974;BME280;62336;-26.094;27.994;2023-05-23T03:32:45;85098.85;;;24.63;22.43
73974;BME280;62336;-26.094;27.994;2023-05-23T03:35:11;85100.15;;;24.90;22.49
73974;BME280;62336;-26.094;27.994;2023-05-23T03:37:36;85100.59;;;24.91;22.39
73974;BME280;62336;-26.094;27.994;2023-05-23T03:40:01;85108.97;;;24.98;22.42
73974;BME280;62336;-26.094;27.994;2023-05-23T03:42:28;85112.50;;;24.92;22.18
73974;BME280;62336;-26.094;27.994;2023-05-23T03:44:52;85113.66;;;24.56;22.47
73974;BME280;62336;-26.094;27.994;2023-05-23T03:47:18;85113.64;;;24.67;22.62
73974;BME280;62336;-26.094;27.994;2023-05-23T03:49:44;85111.36;;;24.74;22.18
73974;BME280;62336;-26.094;27.994;2023-05-23T03:52:09;85112.18;;;24.56;22.46
73974;BME280;62336;-26.094;27.994;2023-05-23T03:54:34;85108.92;;;24.96;22.10
73974;BME280;62336;-26.094;27.994;2023-05-23T03:56:59;85110.77;;;25.08;21.89
73974;BME280;62336;-26.094;27.994;2023-05-23T03:59:25;85107.81;;;25.08;21.98
73974;BME280;62336;-26.094;27.994;2023-05-23T04:01:50;85107.04;;;24.80;22.21
73974;BME280;62336;-26.094;27.994;2023-05-23T04:04:16;85109.96;;;24.79;22.47
73974;BME280;62336;-26.094;27.994;2023-05-23T04:06:41;85108.85;;;24.91;22.27
73974;BME280;62336;-26.094;27.994;2023-05-23T04:09:06;85113.58;;;24.36;22.65
73974;BME280;62336;-26.094;27.994;2023-05-23T04:11:32;85113.05;;;24.20;22.75
73974;BME280;62336;-26.094;27.994;2023-05-23T04:13:57;85111.63;;;25.12;22.10
73974;BME280;62336;-26.094;27.994;2023-05-23T04:16:23;85111.64;;;24.68;22.19
73974;BME280;62336;-26.094;27.994;2023-05-23T04:18:49;85115.36;;;24.32;22.33
73974;BME280;62336;-26.094;27.994;2023-05-23T04:21:14;85112.07;;;25.34;21.93
73974;BME280;62336;-26.094;27.994;2023-05-23T04:23:41;85115.90;;;24.86;21.87
73974;BME280;62336;-26.094;27.994;2023-05-23T04:26:06;85114.85;;;24.93;21.99
73974;BME280;62336;-26.094;27.994;2023-05-23T04:28:33;85118.67;;;24.49;22.40
73974;BME280;62336;-26.094;27.994;2023-05-23T04:30:57;85116.88;;;24.56;22.21
73974;BME280;62336;-26.094;27.994;2023-05-23T04:33:22;85117.68;;;24.45;22.34
73974;BME280;62336;-26.094;27.994;2023-05-23T04:35:47;85120.89;;;24.78;22.07
73974;BME280;62336;-26.094;27.994;2023-05-23T04:38:13;85123.40;;;24.58;22.10
73974;BME280;62336;-26.094;27.994;2023-05-23T04:40:38;85124.89;;;24.53;22.33
73974;BME280;62336;-26.094;27.994;2023-05-23T04:43:04;85126.33;;;24.76;22.39
73974;BME280;62336;-26.094;27.994;2023-05-23T04:45:29;85126.66;;;24.84;22.04
73974;BME280;62336;-26.094;27.994;2023-05-23T04:47:54;85129.49;;;24.60;22.12
73974;BME280;62336;-26.094;27.994;2023-05-23T04:50:20;85129.54;;;25.05;21.94
73974;BME280;62336;-26.094;27.994;2023-05-23T04:52:45;85130.42;;;24.76;21.99
73974;BME280;62336;-26.094;27.994;2023-05-23T04:55:11;85133.70;;;25.15;21.92
73974;BME280;62336;-26.094;27.994;2023-05-23T04:57:36;85138.60;;;24.72;22.38
73974;BME280;62336;-26.094;27.994;2023-05-23T05:00:02;85138.44;;;24.71;22.11
73974;BME280;62336;-26.094;27.994;2023-05-23T05:02:27;85145.04;;;24.74;22.27
73974;BME280;62336;-26.094;27.994;2023-05-23T05:04:53;85148.10;;;24.46;22.16
73974;BME280;62336;-26.094;27.994;2023-05-23T05:07:19;85151.41;;;24.93;21.77
73974;BME280;62336;-26.094;27.994;2023-05-23T05:09:44;85154.87;;;24.70;22.16
73974;BME280;62336;-26.094;27.994;2023-05-23T05:12:09;85154.95;;;25.10;21.90
73974;BME280;62336;-26.094;27.994;2023-05-23T05:14:35;85153.27;;;24.37;22.31
73974;BME280;62336;-26.094;27.994;2023-05-23T05:17:00;85150.11;;;25.57;21.36
73974;BME280;62336;-26.094;27.994;2023-05-23T05:19:26;85152.94;;;24.86;21.94
73974;BME280;62336;-26.094;27.994;2023-05-23T05:21:52;85154.18;;;24.79;21.86
73974;BME280;62336;-26.094;27.994;2023-05-23T05:24:18;85158.52;;;24.57;22.01
73974;BME280;62336;-26.094;27.994;2023-05-23T05:26:43;85160.93;;;24.52;22.43
73974;BME280;62336;-26.094;27.994;2023-05-23T05:29:08;85161.37;;;24.70;22.06
73974;BME280;62336;-26.094;27.994;2023-05-23T05:31:34;85160.65;;;24.82;22.09
73974;BME280;62336;-26.094;27.994;2023-05-23T05:33:59;85156.14;;;24.77;21.77
73974;BME280;62336;-26.094;27.994;2023-05-23T05:36:25;85153.01;;;25.46;21.57
73974;BME280;62336;-26.094;27.994;2023-05-23T05:38:50;85151.93;;;25.91;21.10
73974;BME280;62336;-26.094;27.994;2023-05-23T05:41:15;85156.06;;;25.20;21.75
73974;BME280;62336;-26.094;27.994;2023-05-23T05:43:41;85158.43;;;24.80;21.85
73974;BME280;62336;-26.094;27.994;2023-05-23T05:46:06;85162.05;;;24.76;22.14
73974;BME280;62336;-26.094;27.994;2023-05-23T05:48:31;85165.81;;;24.49;22.29
73974;BME280;62336;-26.094;27.994;2023-05-23T05:50:57;85169.64;;;24.44;22.07
73974;BME280;62336;-26.094;27.994;2023-05-23T05:53:22;85168.83;;;24.31;22.34
73974;BME280;62336;-26.094;27.994;2023-05-23T05:55:48;85173.19;;;24.67;22.38
73974;BME280;62336;-26.094;27.994;2023-05-23T05:58:13;85170.86;;;25.00;21.91
73974;BME280;62336;-26.094;27.994;2023-05-23T06:00:38;85171.83;;;24.56;22.20
73974;BME280;62336;-26.094;27.994;2023-05-23T06:03:04;85170.52;;;25.77;21.48
73974;BME280;62336;-26.094;27.994;2023-05-23T06:05:29;85169.82;;;25.54;21.43
73974;BME280;62336;-26.094;27.994;2023-05-23T06:07:54;85170.07;;;25.86;21.28
73974;BME280;62336;-26.094;27.994;2023-05-23T06:10:19;85165.94;;;25.80;21.15
73974;BME280;62336;-26.094;27.994;2023-05-23T06:12:45;85167.52;;;25.75;21.31
73974;BME280;62336;-26.094;27.994;2023-05-23T06:15:11;85174.77;;;25.00;21.63
73974;BME280;62336;-26.094;27.994;2023-05-23T06:17:36;85175.73;;;25.36;21.14
73974;BME280;62336;-26.094;27.994;2023-05-23T06:20:00;85181.92;;;25.15;21.41
73974;BME280;62336;-26.094;27.994;2023-05-23T06:22:26;85185.27;;;25.78;21.09
73974;BME280;62336;-26.094;27.994;2023-05-23T06:24:51;85185.62;;;25.41;21.36
73974;BME280;62336;-26.094;27.994;2023-05-23T06:27:17;85184.66;;;24.95;21.80
73974;BME280;62336;-26.094;27.994;2023-05-23T06:29:43;85184.70;;;24.47;22.05
73974;BME280;62336;-26.094;27.994;2023-05-23T06:32:07;85189.71;;;25.24;21.79
73974;BME280;62336;-26.094;27.994;2023-05-23T06:34:33;85190.30;;;25.75;21.48
73974;BME280;62336;-26.094;27.994;2023-05-23T06:36:58;85195.24;;;24.98;22.02
73974;BME280;62336;-26.094;27.994;2023-05-23T06:39:23;85197.65;;;25.58;21.46
73974;BME280;62336;-26.094;27.994;2023-05-23T06:41:49;85197.98;;;25.03;21.93
73974;BME280;62336;-26.094;27.994;2023-05-23T06:44:15;85195.82;;;24.66;21.99
73974;BME280;62336;-26.094;27.994;2023-05-23T06:46:42;85195.71;;;25.30;21.74
73974;BME280;62336;-26.094;27.994;2023-05-23T06:49:06;85196.82;;;24.92;21.88
73974;BME280;62336;-26.094;27.994;2023-05-23T06:51:31;85195.87;;;25.35;21.75
73974;BME280;62336;-26.094;27.994;2023-05-23T06:53:56;85195.65;;;25.11;21.97
73974;BME280;62336;-26.094;27.994;2023-05-23T06:56:22;85195.43;;;25.73;21.51
73974;BME280;62336;-26.094;27.994;2023-05-23T06:58:46;85197.85;;;25.40;21.62
73974;BME280;62336;-26.094;27.994;2023-05-23T07:01:12;85202.31;;;25.51;21.64
73974;BME280;62336;-26.094;27.994;2023-05-23T07:03:38;85208.81;;;25.80;21.42
73974;BME280;62336;-26.094;27.994;2023-05-23T07:06:03;85212.04;;;25.60;21.45
73974;BME280;62336;-26.094;27.994;2023-05-23T07:08:29;85209.36;;;25.54;21.37
73974;BME280;62336;-26.094;27.994;2023-05-23T07:10:54;85209.60;;;25.61;21.25
73974;BME280;62336;-26.094;27.994;2023-05-23T07:13:20;85216.30;;;25.65;21.25
73974;BME280;62336;-26.094;27.994;2023-05-23T07:15:45;85217.98;;;25.54;21.41
73974;BME280;62336;-26.094;27.994;2023-05-23T07:18:11;85222.43;;;25.84;21.65
73974;BME280;62336;-26.094;27.994;2023-05-23T07:20:36;85226.12;;;25.61;21.55
73974;BME280;62336;-26.094;27.994;2023-05-23T07:23:01;85230.36;;;25.52;21.63
73974;BME280;62336;-26.094;27.994;2023-05-23T07:25:27;85229.31;;;26.20;21.46
73974;BME280;62336;-26.094;27.994;2023-05-23T07:27:52;85231.60;;;25.61;21.60
73974;BME280;62336;-26.094;27.994;2023-05-23T07:30:18;85235.98;;;25.34;21.83
73974;BME280;62336;-26.094;27.994;2023-05-23T07:32:44;85235.72;;;25.52;21.77
73974;BME280;62336;-26.094;27.994;2023-05-23T07:35:09;85230.52;;;26.04;21.32
73974;BME280;62336;-26.094;27.994;2023-05-23T07:37:34;85224.25;;;25.39;21.84
73974;BME280;62336;-26.094;27.994;2023-05-23T07:40:00;85226.34;;;25.60;21.74
73974;BME280;62336;-26.094;27.994;2023-05-23T07:42:25;85227.30;;;25.56;21.82
73974;BME280;62336;-26.094;27.994;2023-05-23T07:44:51;85234.74;;;25.21;22.39
73974;BME280;62336;-26.094;27.994;2023-05-23T07:47:16;85237.75;;;25.18;22.30
73974;BME280;62336;-26.094;27.994;2023-05-23T07:49:42;85237.62;;;25.17;22.22
73974;BME280;62336;-26.094;27.994;2023-05-23T07:52:07;85234.24;;;25.71;22.18
73974;BME280;62336;-26.094;27.994;2023-05-23T07:54:33;85233.27;;;25.90;21.67
73974;BME280;62336;-26.094;27.994;2023-05-23T07:56:58;85228.31;;;25.71;21.78
73974;BME280;62336;-26.094;27.994;2023-05-23T07:59:23;85225.99;;;26.05;21.59
73974;BME280;62336;-26.094;27.994;2023-05-23T08:01:48;85228.88;;;26.24;21.55
73974;BME280;62336;-26.094;27.994;2023-05-23T08:04:14;85229.50;;;25.97;21.74
73974;BME280;62336;-26.094;27.994;2023-05-23T08:06:39;85225.66;;;25.60;21.76
73974;BME280;62336;-26.094;27.994;2023-05-23T08:09:04;85229.43;;;25.81;21.66
73974;BME280;62336;-26.094;27.994;2023-05-23T08:11:30;85232.37;;;25.74;21.53
73974;BME280;62336;-26.094;27.994;2023-05-23T08:13:55;85233.62;;;26.06;21.50
73974;BME280;62336;-26.094;27.994;2023-05-23T08:16:20;85240.66;;;25.72;21.44
73974;BME280;62336;-26.094;27.994;2023-05-23T08:18:46;85238.27;;;25.74;21.54
73974;BME280;62336;-26.094;27.994;2023-05-23T08:21:10;85235.63;;;25.78;21.61
73974;BME280;62336;-26.094;27.994;2023-05-23T08:23:36;85235.21;;;26.35;21.37
73974;BME280;62336;-26.094;27.994;2023-05-23T08:26:02;85228.81;;;26.21;21.37
73974;BME280;62336;-26.094;27.994;2023-05-23T08:28:28;85234.69;;;26.34;21.19
73974;BME280;62336;-26.094;27.994;2023-05-23T08:30:53;85234.35;;;26.05;21.22
73974;BME280;62336;-26.094;27.994;2023-05-23T08:33:18;85236.18;;;26.09;21.13
73974;BME280;62336;-26.094;27.994;2023-05-23T08:35:44;85236.93;;;26.30;21.08
73974;BME280;62336;-26.094;27.994;2023-05-23T08:38:09;85236.21;;;26.10;21.22
73974;BME280;62336;-26.094;27.994;2023-05-23T08:40:36;85247.29;;;26.57;20.96
73974;BME280;62336;-26.094;27.994;2023-05-23T08:43:01;85248.60;;;25.85;21.20
73974;BME280;62336;-26.094;27.994;2023-05-23T08:45:25;85248.87;;;25.96;21.38
73974;BME280;62336;-26.094;27.994;2023-05-23T08:47:52;85245.35;;;26.18;21.24
73974;BME280;62336;-26.094;27.994;2023-05-23T08:50:18;85240.58;;;26.57;21.01
73974;BME280;62336;-26.094;27.994;2023-05-23T08:52:46;85237.55;;;26.73;20.82
73974;BME280;62336;-26.094;27.994;2023-05-23T08:55:09;85230.86;;;26.08;20.99
73974;BME280;62336;-26.094;27.994;2023-05-23T08:57:33;85221.59;;;26.90;20.71
73974;BME280;62336;-26.094;27.994;2023-05-23T08:59:58;85220.03;;;26.48;20.76
73974;BME280;62336;-26.094;27.994;2023-05-23T09:02:24;85214.00;;;26.84;20.60
73974;BME280;62336;-26.094;27.994;2023-05-23T09:04:49;85208.32;;;27.23;20.36
73974;BME280;62336;-26.094;27.994;2023-05-23T09:07:15;85209.13;;;26.53;20.93
73974;BME280;62336;-26.094;27.994;2023-05-23T09:09:40;85209.80;;;26.59;20.98
73974;BME280;62336;-26.094;27.994;2023-05-23T09:12:06;85211.09;;;26.48;20.89
73974;BME280;62336;-26.094;27.994;2023-05-23T09:14:30;85208.80;;;26.68;20.85
73974;BME280;62336;-26.094;27.994;2023-05-23T09:17:00;85201.52;;;27.06;20.51
73974;BME280;62336;-26.094;27.994;2023-05-23T09:19:21;85198.34;;;26.32;20.90
73974;BME280;62336;-26.094;27.994;2023-05-23T09:21:46;85193.70;;;26.83;21.02
73974;BME280;62336;-26.094;27.994;2023-05-23T09:24:12;85190.18;;;26.58;20.76
73974;BME280;62336;-26.094;27.994;2023-05-23T09:26:37;85192.29;;;27.26;20.45
73974;BME280;62336;-26.094;27.994;2023-05-23T09:29:05;85195.57;;;26.08;20.99
73974;BME280;62336;-26.094;27.994;2023-05-23T09:31:29;85197.48;;;26.21;20.99
73974;BME280;62336;-26.094;27.994;2023-05-23T09:33:54;85189.41;;;26.71;20.74
73974;BME280;62336;-26.094;27.994;2023-05-23T09:36:19;85184.79;;;26.19;20.94
73974;BME280;62336;-26.094;27.994;2023-05-23T09:38:46;85183.14;;;26.61;20.43
73974;BME280;62336;-26.094;27.994;2023-05-23T09:41:10;85182.95;;;26.79;20.47
73974;BME280;62336;-26.094;27.994;2023-05-23T09:43:37;85179.17;;;27.35;20.17
73974;BME280;62336;-26.094;27.994;2023-05-23T09:46:05;85176.27;;;27.15;20.21
73974;BME280;62336;-26.094;27.994;2023-05-23T09:48:28;85164.92;;;27.51;20.20
73974;BME280;62336;-26.094;27.994;2023-05-23T09:50:51;85159.81;;;27.52;19.94
73974;BME280;62336;-26.094;27.994;2023-05-23T09:53:16;85151.16;;;27.58;20.20
73974;BME280;62336;-26.094;27.994;2023-05-23T09:55:43;85143.98;;;27.41;19.85
73974;BME280;62336;-26.094;27.994;2023-05-23T09:58:08;85140.48;;;27.83;19.70
73974;BME280;62336;-26.094;27.994;2023-05-23T10:00:33;85143.71;;;27.37;20.00
73974;BME280;62336;-26.094;27.994;2023-05-23T10:03:07;85135.75;;;27.51;20.04
73974;BME280;62336;-26.094;27.994;2023-05-23T10:05:32;85129.81;;;27.56;20.19
73974;BME280;62336;-26.094;27.994;2023-05-23T10:07:50;85120.55;;;27.37;20.01
73974;BME280;62336;-26.094;27.994;2023-05-23T10:10:16;85107.11;;;27.57;19.81
73974;BME280;62336;-26.094;27.994;2023-05-23T10:12:46;85100.57;;;27.41;20.19
73974;BME280;62336;-26.094;27.994;2023-05-23T10:15:08;85091.42;;;27.44;19.92
73974;BME280;62336;-26.094;27.994;2023-05-23T10:17:41;85081.07;;;27.33;20.17
73974;BME280;62336;-26.094;27.994;2023-05-23T10:20:00;85077.62;;;26.98;20.26
73974;BME280;62336;-26.094;27.994;2023-05-23T10:22:24;85077.03;;;27.28;19.94
73974;BME280;62336;-26.094;27.994;2023-05-23T10:24:50;85081.28;;;27.19;19.81
73974;BME280;62336;-26.094;27.994;2023-05-23T10:27:15;85075.97;;;27.95;19.49
73974;BME280;62336;-26.094;27.994;2023-05-23T10:29:39;85064.54;;;27.44;19.68
73974;BME280;62336;-26.094;27.994;2023-05-23T10:32:05;85059.24;;;27.70;19.28
73974;BME280;62336;-26.094;27.994;2023-05-23T10:34:36;85049.23;;;27.90;19.45
73974;BME280;62336;-26.094;27.994;2023-05-23T10:37:01;85027.29;;;27.95;19.40
73974;BME280;62336;-26.094;27.994;2023-05-23T10:39:30;84983.71;;;27.76;19.00
73974;BME280;62336;-26.094;27.994;2023-05-23T10:41:52;84963.58;;;27.68;19.17
73974;BME280;62336;-26.094;27.994;2023-05-23T10:44:17;84966.77;;;27.94;18.96
73974;BME280;62336;-26.094;27.994;2023-05-23T10:46:51;84978.55;;;27.79;19.45
73974;BME280;62336;-26.094;27.994;2023-05-23T10:49:07;84981.35;;;27.91;19.60
73974;BME280;62336;-26.094;27.994;2023-05-23T10:51:37;84981.46;;;27.80;19.53
73974;BME280;62336;-26.094;27.994;2023-05-23T10:53:54;84977.82;;;27.77;19.48
73974;BME280;62336;-26.094;27.994;2023-05-23T10:56:21;84980.55;;;28.03;18.79
73974;BME280;62336;-26.094;27.994;2023-05-23T10:58:44;84974.31;;;28.46;18.66
73974;BME280;62336;-26.094;27.994;2023-05-23T11:01:14;84972.29;;;28.11;19.11
73974;BME280;62336;-26.094;27.994;2023-05-23T11:03:36;84969.10;;;28.07;19.40
73974;BME280;62336;-26.094;27.994;2023-05-23T11:06:01;84964.96;;;28.59;18.56
73974;BME280;62336;-26.094;27.994;2023-05-23T11:08:26;84966.86;;;28.95;18.88
73974;BME280;62336;-26.094;27.994;2023-05-23T11:10:54;84965.23;;;28.58;18.46
73974;BME280;62336;-26.094;27.994;2023-05-23T11:13:16;84966.05;;;28.37;18.74
73974;BME280;62336;-26.094;27.994;2023-05-23T11:15:43;84978.83;;;28.12;18.56
73974;BME280;62336;-26.094;27.994;2023-05-23T11:18:06;84982.44;;;28.19;18.78
73974;BME280;62336;-26.094;27.994;2023-05-23T11:20:31;84979.46;;;28.39;18.73
73974;BME280;62336;-26.094;27.994;2023-05-23T11:23:00;84977.63;;;28.86;18.53
73974;BME280;62336;-26.094;27.994;2023-05-23T11:27:48;84960.42;;;29.33;17.89
73974;BME280;62336;-26.094;27.994;2023-05-23T11:30:13;84971.82;;;29.06;18.46
73974;BME280;62336;-26.094;27.994;2023-05-23T11:32:37;84966.50;;;28.87;18.22
73974;BME280;62336;-26.094;27.994;2023-05-23T11:35:05;84953.85;;;28.42;18.47
73974;BME280;62336;-26.094;27.994;2023-05-23T11:37:29;84945.13;;;28.81;18.66
73974;BME280;62336;-26.094;27.994;2023-05-23T11:39:54;84937.18;;;28.83;18.11
73974;BME280;62336;-26.094;27.994;2023-05-23T11:42:21;84953.04;;;29.06;18.24
73974;BME280;62336;-26.094;27.994;2023-05-23T11:44:49;84950.13;;;28.66;18.47
73974;BME280;62336;-26.094;27.994;2023-05-23T11:47:11;84953.21;;;29.10;18.29
73974;BME280;62336;-26.094;27.994;2023-05-23T11:49:37;84946.89;;;29.47;18.18
73974;BME280;62336;-26.094;27.994;2023-05-23T11:52:02;84946.95;;;29.39;18.21
73974;BME280;62336;-26.094;27.994;2023-05-23T11:54:27;84940.60;;;29.55;17.68
73974;BME280;62336;-26.094;27.994;2023-05-23T11:56:52;84936.50;;;29.47;17.46
73974;BME280;62336;-26.094;27.994;2023-05-23T11:59:17;84932.10;;;29.08;17.76
73974;BME280;62336;-26.094;27.994;2023-05-23T12:01:44;84928.03;;;29.58;17.66
73974;BME280;62336;-26.094;27.994;2023-05-23T12:04:10;84931.11;;;29.40;17.91
73974;BME280;62336;-26.094;27.994;2023-05-23T12:06:33;84932.56;;;29.67;17.70
73974;BME280;62336;-26.094;27.994;2023-05-23T12:08:59;84927.09;;;29.34;17.30
73974;BME280;62336;-26.094;27.994;2023-05-23T12:11:24;84928.07;;;29.77;17.28
73974;BME280;62336;-26.094;27.994;2023-05-23T12:13:52;84926.02;;;29.72;17.10
73974;BME280;62336;-26.094;27.994;2023-05-23T12:16:15;84923.78;;;30.24;16.84
73974;BME280;62336;-26.094;27.994;2023-05-23T12:18:42;84915.64;;;29.32;17.62
73974;BME280;62336;-26.094;27.994;2023-05-23T12:21:06;84915.29;;;29.17;17.68
73974;BME280;62336;-26.094;27.994;2023-05-23T12:23:31;84912.29;;;29.71;17.50
73974;BME280;62336;-26.094;27.994;2023-05-23T12:25:57;84912.03;;;29.88;17.32
73974;BME280;62336;-26.094;27.994;2023-05-23T12:30:47;84919.00;;;29.42;17.54
73974;BME280;62336;-26.094;27.994;2023-05-23T12:33:12;84920.92;;;29.86;17.23
73974;BME280;62336;-26.094;27.994;2023-05-23T12:35:42;84918.65;;;30.06;17.23
73974;BME280;62336;-26.094;27.994;2023-05-23T12:38:06;84917.93;;;29.61;17.43